Miguel Oliver — ECLX — position and weather

sailwx.info

Track history (hours):
 
Tides and Currents Weather Stations Pressure Air Temp Water Temp Dewpoint Dewpoint Depression Visibility Wind Speed Wind Dir Waves Ship Positions

Oceanographic research ship Miguel Oliver (Spain)

Ship's website: http://www.mapa.es/es/pesca/pags/miguel_web/index.htm

Last reported at 2019-Jun-19 20:25 UTC. Time now 2019-Jun-19 20:51 UTC.
Position N 39°50' E 004°04'.

Length 70 m; draft 6 m.

Type: Other ship. MMSI: 225322000.

Date/timePositionNaut miles runAvg speedWind from/ knotsBaromVisibWave heightAir tempDewpointWater temp
2019-Jun-19 20:25N 39°50' E 004°04'2 4.7
2019-Jun-19 20:00N 39°50' E 004°07'3 4.4
2019-Jun-19 19:24N 39°49' E 004°10'14 2.5
2019-Jun-19 14:03N 39°57' E 004°25'18 0.4
2019-Jun-17 21:18N 40°08' E 004°07'  
2019-Jun-14 07:20N 39°26' E 003°19'510.8
2019-Jun-14 06:51N 39°21' E 003°17'8 3.3
2019-Jun-14 04:26N 39°16' E 003°09'0 1.0
2019-Jun-14 04:00N 39°16' E 003°10'2 0.3
2019-Jun-13 20:37N 39°13' E 003°09'0 1.1
2019-Jun-13 20:18N 39°13' E 003°09'0 1.2
2019-Jun-13 19:57N 39°13' E 003°08'1 1.0
2019-Jun-13 18:41N 39°12' E 003°07'3 2.3
2019-Jun-13 17:12N 39°13' E 003°03'2 2.4
2019-Jun-13 16:23N 39°14' E 003°00'1 3.8
2019-Jun-13 16:00N 39°15' E 002°60'2 5.0
2019-Jun-13 15:30N 39°18' E 002°60'0 0.5
2019-Jun-13 15:00N 39°18' E 002°59'4 8.4
2019-Jun-13 14:30N 39°15' E 003°03'4 4.0
2019-Jun-13 13:27N 39°14' E 003°08'3 3.0
2019-Jun-13 12:33N 39°15' E 003°06'1 7.2
2019-Jun-13 12:29N 39°15' E 003°05'4 7.8
2019-Jun-13 12:00N 39°15' E 003°00'2 3.2
2019-Jun-13 11:30N 39°14' E 002°58'2 3.6
2019-Jun-13 11:00N 39°13' E 003°00'1 1.6
2019-Jun-13 10:27N 39°14' E 002°59'1 3.1
2019-Jun-13 10:00N 39°14' E 002°58'2 5.0
2019-Jun-13 09:30N 39°15' E 002°54'3 5.6
2019-Jun-13 09:00N 39°15' E 002°51'0 0.6
2019-Jun-13 08:30N 39°15' E 002°51'2 3.6
2019-Jun-13 08:01N 39°14' E 002°53'2 4.1
2019-Jun-13 07:30N 39°15' E 002°51'3 6.9
2019-Jun-13 07:00N 39°17' E 002°47'3 5.8
2019-Jun-13 06:30N 39°19' E 002°45'2 3.6
2019-Jun-13 06:00N 39°21' E 002°44'3 5.2
2019-Jun-13 05:30N 39°19' E 002°45'4 7.8
2019-Jun-13 05:00N 39°16' E 002°49'4 7.3
2019-Jun-13 04:30N 39°14' E 002°53'3 6.0
2019-Jun-13 03:56N 39°16' E 002°49'3 6.7
2019-Jun-13 03:30N 39°18' E 002°46'3 6.8
2019-Jun-13 03:00N 39°20' E 002°44'1 2.4
2019-Jun-13 02:30N 39°21' E 002°43'0 0.7
2019-Jun-13 02:00N 39°21' E 002°43'0 0.7
2019-Jun-13 01:30N 39°21' E 002°43'0 0.5
2019-Jun-13 01:00N 39°21' E 002°43'1 2.7
2019-Jun-13 00:30N 39°22' E 002°42'1 2.7
2019-Jun-13 00:00N 39°23' E 002°40'1 1.0
2019-Jun-12 23:30N 39°23' E 002°40'0 0.8
2019-Jun-12 23:00N 39°23' E 002°40'0 0.8
2019-Jun-12 22:30N 39°23' E 002°41'0 0.8
2019-Jun-12 22:00N 39°22' E 002°41'0 0.9
2019-Jun-12 21:30N 39°22' E 002°41'0 1.0
2019-Jun-12 21:00N 39°22' E 002°42'0 0.9
2019-Jun-12 20:30N 39°21' E 002°42'1 2.3
2019-Jun-12 20:00N 39°21' E 002°41'2 3.1
2019-Jun-12 19:30N 39°20' E 002°39'1 2.2
2019-Jun-12 19:00N 39°20' E 002°37'1 2.2
2019-Jun-12 18:30N 39°20' E 002°36'1 2.3
2019-Jun-12 18:00N 39°19' E 002°35'1 2.3
2019-Jun-12 17:30N 39°19' E 002°33'1 2.2
2019-Jun-12 17:00N 39°19' E 002°32'1 2.3
2019-Jun-12 16:30N 39°19' E 002°30'1 2.4
2019-Jun-12 15:59N 39°19' E 002°29'1 2.5
2019-Jun-12 15:30N 39°18' E 002°27'1 2.7
2019-Jun-12 15:00N 39°18' E 002°26'1 2.6
2019-Jun-12 14:30N 39°18' E 002°24'0 0.1
2019-Jun-12 13:56N 39°18' E 002°24'1 1.3
2019-Jun-12 13:30N 39°18' E 002°25'2 3.0
2019-Jun-12 13:00N 39°17' E 002°26'2 2.9
2019-Jun-12 12:29N 39°16' E 002°27'2 4.4
2019-Jun-12 11:57N 39°14' E 002°29'1 2.4
2019-Jun-12 11:30N 39°13' E 002°29'1 2.8
2019-Jun-12 11:00N 39°12' E 002°30'1 3.0
2019-Jun-12 10:30N 39°11' E 002°31'2 4.2
2019-Jun-12 10:00N 39°10' E 002°34'1 2.3
2019-Jun-12 09:28N 39°11' E 002°35'2 4.7
2019-Jun-12 09:00N 39°12' E 002°37'2 4.4
2019-Jun-12 08:30N 39°14' E 002°39'1 2.3
2019-Jun-12 08:00N 39°15' E 002°38'2 3.8
2019-Jun-12 07:30N 39°16' E 002°35'4 8.4
2019-Jun-12 06:59N 39°18' E 002°30'1 2.3
2019-Jun-12 06:30N 39°19' E 002°29'2 3.9
2019-Jun-12 06:00N 39°20' E 002°28'2 4.0
2019-Jun-12 05:30N 39°19' E 002°30'0 0.2
2019-Jun-12 05:00N 39°18' E 002°30'1 1.5
2019-Jun-12 04:30N 39°19' E 002°31'2 5.0
2019-Jun-12 04:00N 39°19' E 002°34'3 5.1
2019-Jun-12 03:30N 39°20' E 002°37'2 4.6
2019-Jun-12 03:00N 39°21' E 002°40'0 0.4
2019-Jun-12 02:00N 39°21' E 002°40'0 0.6
2019-Jun-12 01:30N 39°21' E 002°40'0 0.9
2019-Jun-12 01:00N 39°21' E 002°40'1 1.9
2019-Jun-12 00:30N 39°20' E 002°39'1 2.3
2019-Jun-12 00:00N 39°19' E 002°39'1 1.9
2019-Jun-11 23:30N 39°18' E 002°39'1 1.9
2019-Jun-11 23:00N 39°17' E 002°38'1 1.6
2019-Jun-11 22:30N 39°16' E 002°38'1 1.4
2019-Jun-11 22:00N 39°16' E 002°38'1 1.4
2019-Jun-11 21:30N 39°15' E 002°38'0 1.0
2019-Jun-11 21:00N 39°14' E 002°38'0 0.0
2019-Jun-11 20:30N 39°14' E 002°38'0 0.1
2019-Jun-11 20:00N 39°14' E 002°38'5 9.6
2019-Jun-11 19:30N 39°17' E 002°33'3 5.2
2019-Jun-11 19:00N 39°18' E 002°30'0 0.0
2019-Jun-11 18:30N 39°18' E 002°30'0 0.0
2019-Jun-11 18:00N 39°18' E 002°30'2 4.8
2019-Jun-11 17:30N 39°21' E 002°31'510.1
2019-Jun-11 17:00N 39°25' E 002°34'510.3
2019-Jun-11 16:30N 39°30' E 002°37'3 6.9
2019-Jun-11 16:00N 39°33' E 002°38'0 0.5
2019-Jun-11 15:29N 39°33' E 002°38'0 0.0
2019-Jun-11 14:59N 39°33' E 002°38'0 0.0
2019-Jun-11 14:30N 39°33' E 002°38'0 0.0
2019-Jun-11 14:00N 39°33' E 002°38'0 0.0
2019-Jun-11 13:30N 39°33' E 002°38'0 0.0
2019-Jun-11 12:58N 39°33' E 002°38'0 0.0
2019-Jun-11 12:28N 39°33' E 002°38'0 0.0
2019-Jun-11 11:58N 39°33' E 002°38'0 0.0
2019-Jun-11 11:29N 39°33' E 002°38'0 0.0
2019-Jun-11 10:59N 39°33' E 002°38'0 0.0
2019-Jun-11 10:29N 39°33' E 002°38'0 0.0
2019-Jun-11 10:00N 39°33' E 002°38'0 0.0
2019-Jun-11 09:30N 39°33' E 002°38'0 0.0
2019-Jun-11 09:00N 39°33' E 002°38'0 0.0
2019-Jun-11 08:28N 39°33' E 002°38'0 0.0
2019-Jun-11 07:58N 39°33' E 002°38'0 0.0
2019-Jun-11 07:28N 39°33' E 002°38'0 0.0
2019-Jun-11 06:59N 39°33' E 002°38'0 0.0
2019-Jun-11 06:29N 39°33' E 002°38'0 0.0
2019-Jun-11 06:00N 39°33' E 002°38'2 3.3
2019-Jun-11 05:30N 39°31' E 002°38'5 9.0
2019-Jun-11 05:00N 39°27' E 002°35'4 7.7
2019-Jun-11 04:30N 39°24' E 002°31'5 9.1
2019-Jun-11 04:00N 39°27' E 002°27'9110.7
2019-Jun-10 19:28N 40°57' E 002°13'811.9
2019-Jun-10 18:46N 41°06' E 002°13'312.0
2019-Jun-10 18:31N 41°09' E 002°13'611.7
2019-Jun-10 18:00N 41°15' E 002°13'611.1
2019-Jun-10 17:31N 41°20' E 002°12'2 0.2
2019-Jun-10 06:20N 41°22' E 002°11'1 1.8
2019-Jun-10 06:01N 41°22' E 002°11'3 6.7
2019-Jun-10 05:30N 41°21' E 002°15'4 8.6
2019-Jun-10 05:01N 41°22' E 002°21'3 4.6
2019-Jun-10 04:28N 41°24' E 002°23'2 3.8
2019-Jun-10 04:01N 41°26' E 002°23'0 0.6
2019-Jun-10 03:31N 41°26' E 002°23'0 0.6
2019-Jun-10 03:01N 41°25' E 002°23'0 0.5
2019-Jun-10 02:31N 41°25' E 002°23'0 0.1
2019-Jun-10 02:01N 41°25' E 002°23'1 2.9
2019-Jun-10 01:31N 41°25' E 002°22'0 0.3
2019-Jun-10 00:57N 41°24' E 002°22'0 0.5
2019-Jun-10 00:28N 41°24' E 002°22'0 0.5
2019-Jun-09 23:39N 41°24' E 002°22'0 0.4
2019-Jun-09 23:15N 41°24' E 002°22'0 0.2
2019-Jun-09 22:12N 41°24' E 002°23'1 3.9
2019-Jun-09 22:01N 41°23' E 002°23'2 4.0
2019-Jun-09 21:31N 41°21' E 002°23'0 0.4
2019-Jun-09 21:01N 41°21' E 002°23'0 0.4
2019-Jun-09 20:31N 41°21' E 002°23'0 0.3
2019-Jun-09 20:01N 41°22' E 002°23'0 0.3
2019-Jun-09 19:29N 41°22' E 002°23'0 0.4
2019-Jun-09 19:01N 41°22' E 002°23'0 0.5
2019-Jun-09 18:31N 41°22' E 002°23'0 0.6
2019-Jun-09 18:00N 41°22' E 002°23'0 0.4
2019-Jun-09 17:21N 41°23' E 002°23'1 1.8
2019-Jun-09 17:00N 41°23' E 002°22'2 4.7
2019-Jun-09 16:31N 41°24' E 002°19'1 2.5
2019-Jun-09 16:00N 41°25' E 002°19'0 0.5
2019-Jun-09 15:31N 41°25' E 002°19'0 0.6
2019-Jun-09 15:00N 41°25' E 002°19'0 0.8
2019-Jun-09 14:31N 41°24' E 002°20'0 0.6
2019-Jun-09 14:00N 41°24' E 002°20'1 2.4
2019-Jun-09 13:29N 41°23' E 002°20'2 3.3
2019-Jun-09 13:01N 41°22' E 002°19'2 3.5
2019-Jun-09 12:31N 41°20' E 002°19'3 5.1
2019-Jun-09 12:01N 41°17' E 002°19'3 6.3
2019-Jun-09 11:31N 41°14' E 002°18'3 6.1
2019-Jun-09 11:01N 41°11' E 002°18'3 5.0
2019-Jun-09 10:31N 41°09' E 002°17'1 1.3
2019-Jun-09 10:00N 41°09' E 002°18'1 2.4
2019-Jun-09 09:31N 41°09' E 002°20'2 3.0
2019-Jun-09 09:01N 41°10' E 002°22'2 3.6
2019-Jun-09 08:31N 41°10' E 002°24'1 2.9
2019-Jun-09 08:01N 41°12' E 002°24'2 4.8
2019-Jun-09 07:31N 41°13' E 002°21'1 2.5
2019-Jun-09 07:00N 41°13' E 002°20'1 3.0
2019-Jun-09 06:31N 41°13' E 002°18'2 3.9
2019-Jun-09 06:00N 41°12' E 002°15'2 4.0
2019-Jun-09 05:30N 41°12' E 002°13'2 4.1
2019-Jun-09 05:01N 41°12' E 002°10'5 4.8
2019-Jun-09 04:01N 41°13' E 002°04'2 4.8
2019-Jun-09 03:30N 41°13' E 002°00'0 0.9
2019-Jun-09 03:01N 41°13' E 002°01'0 0.9
2019-Jun-09 02:31N 41°13' E 002°01'0 0.8
2019-Jun-09 02:01N 41°13' E 002°02'0 0.8
2019-Jun-09 01:30N 41°13' E 002°03'0 0.8
2019-Jun-09 01:01N 41°13' E 002°03'0 0.7
2019-Jun-09 00:31N 41°13' E 002°03'0 0.5
2019-Jun-09 00:01N 41°13' E 002°04'0 0.3
2019-Jun-08 23:31N 41°14' E 002°04'0 0.9
2019-Jun-08 23:01N 41°14' E 002°04'0 0.5
2019-Jun-08 22:31N 41°14' E 002°04'0 0.2
2019-Jun-08 22:01N 41°14' E 002°04'2 4.9
2019-Jun-08 21:31N 41°12' E 002°01'2 4.4
2019-Jun-08 21:00N 41°11' E 001°59'2 4.3
2019-Jun-08 20:31N 41°10' E 001°57'2 4.3
2019-Jun-08 20:00N 41°08' E 001°55'2 3.7
2019-Jun-08 19:30N 41°07' E 001°53'2 4.3
2019-Jun-08 19:00N 41°06' E 001°50'2 4.4
2019-Jun-08 18:30N 41°05' E 001°48'2 4.2
2019-Jun-08 18:00N 41°03' E 001°46'2 4.1
2019-Jun-08 17:30N 41°02' E 001°44'2 3.8
2019-Jun-08 17:01N 41°00' E 001°43'2 3.5
2019-Jun-08 16:30N 40°59' E 001°41'3 3.6
2019-Jun-08 15:42N 40°57' E 001°38'10 0.5
2019-Jun-07 20:28N 41°06' E 001°31'2 3.8
2019-Jun-07 19:50N 41°05' E 001°28'2 4.3
2019-Jun-07 19:29N 41°04' E 001°30'2 4.3
2019-Jun-07 18:59N 41°05' E 001°33'2 4.4
2019-Jun-07 18:29N 41°06' E 001°35'2 4.3
2019-Jun-07 17:59N 41°07' E 001°38'2 3.8
2019-Jun-07 17:30N 41°06' E 001°40'2 3.7
2019-Jun-07 17:00N 41°06' E 001°43'2 4.0
2019-Jun-07 16:30N 41°07' E 001°45'3 5.3
2019-Jun-07 16:00N 41°04' E 001°45'2 4.1
2019-Jun-07 15:30N 41°02' E 001°46'1 1.9
2019-Jun-07 15:00N 41°02' E 001°47'2 3.0
2019-Jun-07 14:30N 41°02' E 001°49'2 4.0
2019-Jun-07 14:00N 41°02' E 001°52'5 9.9
2019-Jun-07 13:30N 41°05' E 001°57'510.5
2019-Jun-07 13:01N 41°08' E 002°02'5 9.2
2019-Jun-07 12:31N 41°11' E 002°07'1 2.2
2019-Jun-07 12:01N 41°12' E 002°08'1 3.0
2019-Jun-07 11:31N 41°13' E 002°10'2 3.6
2019-Jun-07 11:01N 41°14' E 002°11'1 1.9
2019-Jun-07 10:31N 41°14' E 002°10'3 5.5
2019-Jun-07 10:01N 41°13' E 002°07'2 4.7
2019-Jun-07 09:31N 41°12' E 002°04'1 2.6
2019-Jun-07 09:00N 41°11' E 002°03'2 3.3
2019-Jun-07 08:30N 41°10' E 002°01'5 9.4
2019-Jun-07 08:01N 41°10' E 001°55'2 3.4
2019-Jun-07 07:31N 41°10' E 001°52'2 3.9
2019-Jun-07 07:01N 41°09' E 001°50'2 3.2
2019-Jun-07 06:31N 41°09' E 001°48'2 3.3
2019-Jun-07 06:00N 41°09' E 001°46'1 1.8
2019-Jun-07 05:30N 41°09' E 001°47'2 4.7
2019-Jun-07 05:00N 41°08' E 001°50'1 3.0
2019-Jun-07 04:30N 41°07' E 001°50'0 0.3
2019-Jun-07 04:00N 41°07' E 001°50'0 0.5
2019-Jun-07 03:30N 41°07' E 001°50'1 1.7
2019-Jun-07 03:00N 41°07' E 001°50'0 0.4
2019-Jun-07 02:30N 41°07' E 001°50'3 5.1
2019-Jun-07 02:00N 41°10' E 001°49'0 0.2
2019-Jun-07 01:30N 41°10' E 001°49'1 1.2
2019-Jun-07 01:00N 41°10' E 001°49'0 0.4
2019-Jun-07 00:30N 41°10' E 001°49'0 0.6
2019-Jun-07 00:00N 41°10' E 001°50'0 0.7
2019-Jun-06 23:30N 41°10' E 001°50'0 0.7
2019-Jun-06 23:01N 41°10' E 001°50'0 0.9
2019-Jun-06 22:31N 41°09' E 001°51'0 0.9
2019-Jun-06 22:01N 41°09' E 001°51'2 3.6
2019-Jun-06 21:31N 41°10' E 001°54'2 4.7
2019-Jun-06 21:01N 41°10' E 001°57'2 4.8
2019-Jun-06 20:30N 41°11' E 001°60'2 4.8
2019-Jun-06 20:01N 41°12' E 002°03'2 4.7
2019-Jun-06 19:31N 41°12' E 002°06'3 6.8
2019-Jun-06 19:01N 41°13' E 002°10'3 6.9
2019-Jun-06 18:31N 41°14' E 002°15'3 5.7
2019-Jun-06 18:01N 41°14' E 002°18'3 6.2
2019-Jun-06 17:30N 41°15' E 002°23'3 6.4
2019-Jun-06 16:58N 41°16' E 002°27'36 1.3
2019-Jun-05 12:30N 41°25' E 003°14'7 1.6
2019-Jun-05 07:55N 41°29' E 003°07'12 2.6
2019-Jun-05 03:11N 41°30' E 002°50'10 3.3
2019-Jun-05 00:11N 41°37' E 003°00'1 3.3
2019-Jun-04 23:59N 41°37' E 003°01'2 3.2
2019-Jun-04 23:29N 41°38' E 003°02'2 3.1
2019-Jun-04 22:55N 41°39' E 003°04'2 3.0
2019-Jun-04 22:21N 41°40' E 003°06'1 3.1
2019-Jun-04 21:59N 41°41' E 003°07'3 4.1
2019-Jun-04 21:20N 41°44' E 003°08'1 4.2
2019-Jun-04 21:00N 41°45' E 003°09'2 4.1
2019-Jun-04 20:30N 41°47' E 003°11'3 4.0
2019-Jun-04 19:46N 41°49' E 003°13'1 3.6
2019-Jun-04 19:30N 41°50' E 003°13'8 0.7
2019-Jun-04 09:01N 41°42' E 003°14'0 3.0
2019-Jun-04 09:01N 41°43' E 003°14'1 2.9
2019-Jun-04 08:31N 41°44' E 003°15'  
Track history (hours):
 
Tides and Currents Weather Stations Pressure Air Temp Water Temp Dewpoint Dewpoint Depression Visibility Wind Speed Wind Dir Waves Ship Positions

Oceanographic research ship Miguel Oliver (Spain)

Ship's website: http://www.mapa.es/es/pesca/pags/miguel_web/index.htm

Last reported at 2019-Jun-19 20:25 UTC. Time now 2019-Jun-19 20:51 UTC.
Position N 39°50' E 004°04'.

Length 70 m; draft 6 m.

Type: Other ship. MMSI: 225322000.

Date/timePositionNaut miles runAvg speedWind from/ knotsBaromVisibWave heightAir tempDewpointWater temp
2019-Jun-19 20:25N 39°50' E 004°04'2 4.7
2019-Jun-19 20:00N 39°50' E 004°07'3 4.4
2019-Jun-19 19:24N 39°49' E 004°10'14 2.5
2019-Jun-19 14:03N 39°57' E 004°25'18 0.4
2019-Jun-17 21:18N 40°08' E 004°07'  
2019-Jun-14 07:20N 39°26' E 003°19'510.8
2019-Jun-14 06:51N 39°21' E 003°17'8 3.3
2019-Jun-14 04:26N 39°16' E 003°09'0 1.0
2019-Jun-14 04:00N 39°16' E 003°10'2 0.3
2019-Jun-13 20:37N 39°13' E 003°09'0 1.1
2019-Jun-13 20:18N 39°13' E 003°09'0 1.2
2019-Jun-13 19:57N 39°13' E 003°08'1 1.0
2019-Jun-13 18:41N 39°12' E 003°07'3 2.3
2019-Jun-13 17:12N 39°13' E 003°03'2 2.4
2019-Jun-13 16:23N 39°14' E 003°00'1 3.8
2019-Jun-13 16:00N 39°15' E 002°60'2 5.0
2019-Jun-13 15:30N 39°18' E 002°60'0 0.5
2019-Jun-13 15:00N 39°18' E 002°59'4 8.4
2019-Jun-13 14:30N 39°15' E 003°03'4 4.0
2019-Jun-13 13:27N 39°14' E 003°08'3 3.0
2019-Jun-13 12:33N 39°15' E 003°06'1 7.2
2019-Jun-13 12:29N 39°15' E 003°05'4 7.8
2019-Jun-13 12:00N 39°15' E 003°00'2 3.2
2019-Jun-13 11:30N 39°14' E 002°58'2 3.6
2019-Jun-13 11:00N 39°13' E 003°00'1 1.6
2019-Jun-13 10:27N 39°14' E 002°59'1 3.1
2019-Jun-13 10:00N 39°14' E 002°58'2 5.0
2019-Jun-13 09:30N 39°15' E 002°54'3 5.6
2019-Jun-13 09:00N 39°15' E 002°51'0 0.6
2019-Jun-13 08:30N 39°15' E 002°51'2 3.6
2019-Jun-13 08:01N 39°14' E 002°53'2 4.1
2019-Jun-13 07:30N 39°15' E 002°51'3 6.9
2019-Jun-13 07:00N 39°17' E 002°47'3 5.8
2019-Jun-13 06:30N 39°19' E 002°45'2 3.6
2019-Jun-13 06:00N 39°21' E 002°44'3 5.2
2019-Jun-13 05:30N 39°19' E 002°45'4 7.8
2019-Jun-13 05:00N 39°16' E 002°49'4 7.3
2019-Jun-13 04:30N 39°14' E 002°53'3 6.0
2019-Jun-13 03:56N 39°16' E 002°49'3 6.7
2019-Jun-13 03:30N 39°18' E 002°46'3 6.8
2019-Jun-13 03:00N 39°20' E 002°44'1 2.4
2019-Jun-13 02:30N 39°21' E 002°43'0 0.7
2019-Jun-13 02:00N 39°21' E 002°43'0 0.7
2019-Jun-13 01:30N 39°21' E 002°43'0 0.5
2019-Jun-13 01:00N 39°21' E 002°43'1 2.7
2019-Jun-13 00:30N 39°22' E 002°42'1 2.7
2019-Jun-13 00:00N 39°23' E 002°40'1 1.0
2019-Jun-12 23:30N 39°23' E 002°40'0 0.8
2019-Jun-12 23:00N 39°23' E 002°40'0 0.8
2019-Jun-12 22:30N 39°23' E 002°41'0 0.8
2019-Jun-12 22:00N 39°22' E 002°41'0 0.9
2019-Jun-12 21:30N 39°22' E 002°41'0 1.0
2019-Jun-12 21:00N 39°22' E 002°42'0 0.9
2019-Jun-12 20:30N 39°21' E 002°42'1 2.3
2019-Jun-12 20:00N 39°21' E 002°41'2 3.1
2019-Jun-12 19:30N 39°20' E 002°39'1 2.2
2019-Jun-12 19:00N 39°20' E 002°37'1 2.2
2019-Jun-12 18:30N 39°20' E 002°36'1 2.3
2019-Jun-12 18:00N 39°19' E 002°35'1 2.3
2019-Jun-12 17:30N 39°19' E 002°33'1 2.2
2019-Jun-12 17:00N 39°19' E 002°32'1 2.3
2019-Jun-12 16:30N 39°19' E 002°30'1 2.4
2019-Jun-12 15:59N 39°19' E 002°29'1 2.5
2019-Jun-12 15:30N 39°18' E 002°27'1 2.7
2019-Jun-12 15:00N 39°18' E 002°26'1 2.6
2019-Jun-12 14:30N 39°18' E 002°24'0 0.1
2019-Jun-12 13:56N 39°18' E 002°24'1 1.3
2019-Jun-12 13:30N 39°18' E 002°25'2 3.0
2019-Jun-12 13:00N 39°17' E 002°26'2 2.9
2019-Jun-12 12:29N 39°16' E 002°27'2 4.4
2019-Jun-12 11:57N 39°14' E 002°29'1 2.4
2019-Jun-12 11:30N 39°13' E 002°29'1 2.8
2019-Jun-12 11:00N 39°12' E 002°30'1 3.0
2019-Jun-12 10:30N 39°11' E 002°31'2 4.2
2019-Jun-12 10:00N 39°10' E 002°34'1 2.3
2019-Jun-12 09:28N 39°11' E 002°35'2 4.7
2019-Jun-12 09:00N 39°12' E 002°37'2 4.4
2019-Jun-12 08:30N 39°14' E 002°39'1 2.3
2019-Jun-12 08:00N 39°15' E 002°38'2 3.8
2019-Jun-12 07:30N 39°16' E 002°35'4 8.4
2019-Jun-12 06:59N 39°18' E 002°30'1 2.3
2019-Jun-12 06:30N 39°19' E 002°29'2 3.9
2019-Jun-12 06:00N 39°20' E 002°28'2 4.0
2019-Jun-12 05:30N 39°19' E 002°30'0 0.2
2019-Jun-12 05:00N 39°18' E 002°30'1 1.5
2019-Jun-12 04:30N 39°19' E 002°31'2 5.0
2019-Jun-12 04:00N 39°19' E 002°34'3 5.1
2019-Jun-12 03:30N 39°20' E 002°37'2 4.6
2019-Jun-12 03:00N 39°21' E 002°40'0 0.4
2019-Jun-12 02:00N 39°21' E 002°40'0 0.6
2019-Jun-12 01:30N 39°21' E 002°40'0 0.9
2019-Jun-12 01:00N 39°21' E 002°40'1 1.9
2019-Jun-12 00:30N 39°20' E 002°39'1 2.3
2019-Jun-12 00:00N 39°19' E 002°39'1 1.9
2019-Jun-11 23:30N 39°18' E 002°39'1 1.9
2019-Jun-11 23:00N 39°17' E 002°38'1 1.6
2019-Jun-11 22:30N 39°16' E 002°38'1 1.4
2019-Jun-11 22:00N 39°16' E 002°38'1 1.4
2019-Jun-11 21:30N 39°15' E 002°38'0 1.0
2019-Jun-11 21:00N 39°14' E 002°38'0 0.0
2019-Jun-11 20:30N 39°14' E 002°38'0 0.1
2019-Jun-11 20:00N 39°14' E 002°38'5 9.6
2019-Jun-11 19:30N 39°17' E 002°33'3 5.2
2019-Jun-11 19:00N 39°18' E 002°30'0 0.0
2019-Jun-11 18:30N 39°18' E 002°30'0 0.0
2019-Jun-11 18:00N 39°18' E 002°30'2 4.8
2019-Jun-11 17:30N 39°21' E 002°31'510.1
2019-Jun-11 17:00N 39°25' E 002°34'510.3
2019-Jun-11 16:30N 39°30' E 002°37'3 6.9
2019-Jun-11 16:00N 39°33' E 002°38'0 0.5
2019-Jun-11 15:29N 39°33' E 002°38'0 0.0
2019-Jun-11 14:59N 39°33' E 002°38'0 0.0
2019-Jun-11 14:30N 39°33' E 002°38'0 0.0
2019-Jun-11 14:00N 39°33' E 002°38'0 0.0
2019-Jun-11 13:30N 39°33' E 002°38'0 0.0
2019-Jun-11 12:58N 39°33' E 002°38'0 0.0
2019-Jun-11 12:28N 39°33' E 002°38'0 0.0
2019-Jun-11 11:58N 39°33' E 002°38'0 0.0
2019-Jun-11 11:29N 39°33' E 002°38'0 0.0
2019-Jun-11 10:59N 39°33' E 002°38'0 0.0
2019-Jun-11 10:29N 39°33' E 002°38'0 0.0
2019-Jun-11 10:00N 39°33' E 002°38'0 0.0
2019-Jun-11 09:30N 39°33' E 002°38'0 0.0
2019-Jun-11 09:00N 39°33' E 002°38'0 0.0
2019-Jun-11 08:28N 39°33' E 002°38'0 0.0
2019-Jun-11 07:58N 39°33' E 002°38'0 0.0
2019-Jun-11 07:28N 39°33' E 002°38'0 0.0
2019-Jun-11 06:59N 39°33' E 002°38'0 0.0
2019-Jun-11 06:29N 39°33' E 002°38'0 0.0
2019-Jun-11 06:00N 39°33' E 002°38'2 3.3
2019-Jun-11 05:30N 39°31' E 002°38'5 9.0
2019-Jun-11 05:00N 39°27' E 002°35'4 7.7
2019-Jun-11 04:30N 39°24' E 002°31'5 9.1
2019-Jun-11 04:00N 39°27' E 002°27'9110.7
2019-Jun-10 19:28N 40°57' E 002°13'811.9
2019-Jun-10 18:46N 41°06' E 002°13'312.0
2019-Jun-10 18:31N 41°09' E 002°13'611.7
2019-Jun-10 18:00N 41°15' E 002°13'611.1
2019-Jun-10 17:31N 41°20' E 002°12'2 0.2
2019-Jun-10 06:20N 41°22' E 002°11'1 1.8
2019-Jun-10 06:01N 41°22' E 002°11'3 6.7
2019-Jun-10 05:30N 41°21' E 002°15'4 8.6
2019-Jun-10 05:01N 41°22' E 002°21'3 4.6
2019-Jun-10 04:28N 41°24' E 002°23'2 3.8
2019-Jun-10 04:01N 41°26' E 002°23'0 0.6
2019-Jun-10 03:31N 41°26' E 002°23'0 0.6
2019-Jun-10 03:01N 41°25' E 002°23'0 0.5
2019-Jun-10 02:31N 41°25' E 002°23'0 0.1
2019-Jun-10 02:01N 41°25' E 002°23'1 2.9
2019-Jun-10 01:31N 41°25' E 002°22'0 0.3
2019-Jun-10 00:57N 41°24' E 002°22'0 0.5
2019-Jun-10 00:28N 41°24' E 002°22'0 0.5
2019-Jun-09 23:39N 41°24' E 002°22'0 0.4
2019-Jun-09 23:15N 41°24' E 002°22'0 0.2
2019-Jun-09 22:12N 41°24' E 002°23'1 3.9
2019-Jun-09 22:01N 41°23' E 002°23'2 4.0
2019-Jun-09 21:31N 41°21' E 002°23'0 0.4
2019-Jun-09 21:01N 41°21' E 002°23'0 0.4
2019-Jun-09 20:31N 41°21' E 002°23'0 0.3
2019-Jun-09 20:01N 41°22' E 002°23'0 0.3
2019-Jun-09 19:29N 41°22' E 002°23'0 0.4
2019-Jun-09 19:01N 41°22' E 002°23'0 0.5
2019-Jun-09 18:31N 41°22' E 002°23'0 0.6
2019-Jun-09 18:00N 41°22' E 002°23'0 0.4
2019-Jun-09 17:21N 41°23' E 002°23'1 1.8
2019-Jun-09 17:00N 41°23' E 002°22'2 4.7
2019-Jun-09 16:31N 41°24' E 002°19'1 2.5
2019-Jun-09 16:00N 41°25' E 002°19'0 0.5
2019-Jun-09 15:31N 41°25' E 002°19'0 0.6
2019-Jun-09 15:00N 41°25' E 002°19'0 0.8
2019-Jun-09 14:31N 41°24' E 002°20'0 0.6
2019-Jun-09 14:00N 41°24' E 002°20'1 2.4
2019-Jun-09 13:29N 41°23' E 002°20'2 3.3
2019-Jun-09 13:01N 41°22' E 002°19'2 3.5
2019-Jun-09 12:31N 41°20' E 002°19'3 5.1
2019-Jun-09 12:01N 41°17' E 002°19'3 6.3
2019-Jun-09 11:31N 41°14' E 002°18'3 6.1
2019-Jun-09 11:01N 41°11' E 002°18'3 5.0
2019-Jun-09 10:31N 41°09' E 002°17'1 1.3
2019-Jun-09 10:00N 41°09' E 002°18'1 2.4
2019-Jun-09 09:31N 41°09' E 002°20'2 3.0
2019-Jun-09 09:01N 41°10' E 002°22'2 3.6
2019-Jun-09 08:31N 41°10' E 002°24'1 2.9
2019-Jun-09 08:01N 41°12' E 002°24'2 4.8
2019-Jun-09 07:31N 41°13' E 002°21'1 2.5
2019-Jun-09 07:00N 41°13' E 002°20'1 3.0
2019-Jun-09 06:31N 41°13' E 002°18'2 3.9
2019-Jun-09 06:00N 41°12' E 002°15'2 4.0
2019-Jun-09 05:30N 41°12' E 002°13'2 4.1
2019-Jun-09 05:01N 41°12' E 002°10'5 4.8
2019-Jun-09 04:01N 41°13' E 002°04'2 4.8
2019-Jun-09 03:30N 41°13' E 002°00'0 0.9
2019-Jun-09 03:01N 41°13' E 002°01'0 0.9
2019-Jun-09 02:31N 41°13' E 002°01'0 0.8
2019-Jun-09 02:01N 41°13' E 002°02'0 0.8
2019-Jun-09 01:30N 41°13' E 002°03'0 0.8
2019-Jun-09 01:01N 41°13' E 002°03'0 0.7
2019-Jun-09 00:31N 41°13' E 002°03'0 0.5
2019-Jun-09 00:01N 41°13' E 002°04'0 0.3
2019-Jun-08 23:31N 41°14' E 002°04'0 0.9
2019-Jun-08 23:01N 41°14' E 002°04'0 0.5
2019-Jun-08 22:31N 41°14' E 002°04'0 0.2
2019-Jun-08 22:01N 41°14' E 002°04'2 4.9
2019-Jun-08 21:31N 41°12' E 002°01'2 4.4
2019-Jun-08 21:00N 41°11' E 001°59'2 4.3
2019-Jun-08 20:31N 41°10' E 001°57'2 4.3
2019-Jun-08 20:00N 41°08' E 001°55'2 3.7
2019-Jun-08 19:30N 41°07' E 001°53'2 4.3
2019-Jun-08 19:00N 41°06' E 001°50'2 4.4
2019-Jun-08 18:30N 41°05' E 001°48'2 4.2
2019-Jun-08 18:00N 41°03' E 001°46'2 4.1
2019-Jun-08 17:30N 41°02' E 001°44'2 3.8
2019-Jun-08 17:01N 41°00' E 001°43'2 3.5
2019-Jun-08 16:30N 40°59' E 001°41'3 3.6
2019-Jun-08 15:42N 40°57' E 001°38'10 0.5
2019-Jun-07 20:28N 41°06' E 001°31'2 3.8
2019-Jun-07 19:50N 41°05' E 001°28'2 4.3
2019-Jun-07 19:29N 41°04' E 001°30'2 4.3
2019-Jun-07 18:59N 41°05' E 001°33'2 4.4
2019-Jun-07 18:29N 41°06' E 001°35'2 4.3
2019-Jun-07 17:59N 41°07' E 001°38'2 3.8
2019-Jun-07 17:30N 41°06' E 001°40'2 3.7
2019-Jun-07 17:00N 41°06' E 001°43'2 4.0
2019-Jun-07 16:30N 41°07' E 001°45'3 5.3
2019-Jun-07 16:00N 41°04' E 001°45'2 4.1
2019-Jun-07 15:30N 41°02' E 001°46'1 1.9
2019-Jun-07 15:00N 41°02' E 001°47'2 3.0
2019-Jun-07 14:30N 41°02' E 001°49'2 4.0
2019-Jun-07 14:00N 41°02' E 001°52'5 9.9
2019-Jun-07 13:30N 41°05' E 001°57'510.5
2019-Jun-07 13:01N 41°08' E 002°02'5 9.2
2019-Jun-07 12:31N 41°11' E 002°07'1 2.2
2019-Jun-07 12:01N 41°12' E 002°08'1 3.0
2019-Jun-07 11:31N 41°13' E 002°10'2 3.6
2019-Jun-07 11:01N 41°14' E 002°11'1 1.9
2019-Jun-07 10:31N 41°14' E 002°10'3 5.5
2019-Jun-07 10:01N 41°13' E 002°07'2 4.7
2019-Jun-07 09:31N 41°12' E 002°04'1 2.6
2019-Jun-07 09:00N 41°11' E 002°03'2 3.3
2019-Jun-07 08:30N 41°10' E 002°01'5 9.4
2019-Jun-07 08:01N 41°10' E 001°55'2 3.4
2019-Jun-07 07:31N 41°10' E 001°52'2 3.9
2019-Jun-07 07:01N 41°09' E 001°50'2 3.2
2019-Jun-07 06:31N 41°09' E 001°48'2 3.3
2019-Jun-07 06:00N 41°09' E 001°46'1 1.8
2019-Jun-07 05:30N 41°09' E 001°47'2 4.7
2019-Jun-07 05:00N 41°08' E 001°50'1 3.0
2019-Jun-07 04:30N 41°07' E 001°50'0 0.3
2019-Jun-07 04:00N 41°07' E 001°50'0 0.5
2019-Jun-07 03:30N 41°07' E 001°50'1 1.7
2019-Jun-07 03:00N 41°07' E 001°50'0 0.4
2019-Jun-07 02:30N 41°07' E 001°50'3 5.1
2019-Jun-07 02:00N 41°10' E 001°49'0 0.2
2019-Jun-07 01:30N 41°10' E 001°49'1 1.2
2019-Jun-07 01:00N 41°10' E 001°49'0 0.4
2019-Jun-07 00:30N 41°10' E 001°49'0 0.6
2019-Jun-07 00:00N 41°10' E 001°50'0 0.7
2019-Jun-06 23:30N 41°10' E 001°50'0 0.7
2019-Jun-06 23:01N 41°10' E 001°50'0 0.9
2019-Jun-06 22:31N 41°09' E 001°51'0 0.9
2019-Jun-06 22:01N 41°09' E 001°51'2 3.6
2019-Jun-06 21:31N 41°10' E 001°54'2 4.7
2019-Jun-06 21:01N 41°10' E 001°57'2 4.8
2019-Jun-06 20:30N 41°11' E 001°60'2 4.8
2019-Jun-06 20:01N 41°12' E 002°03'2 4.7
2019-Jun-06 19:31N 41°12' E 002°06'3 6.8
2019-Jun-06 19:01N 41°13' E 002°10'3 6.9
2019-Jun-06 18:31N 41°14' E 002°15'3 5.7
2019-Jun-06 18:01N 41°14' E 002°18'3 6.2
2019-Jun-06 17:30N 41°15' E 002°23'3 6.4
2019-Jun-06 16:58N 41°16' E 002°27'36 1.3
2019-Jun-05 12:30N 41°25' E 003°14'7 1.6
2019-Jun-05 07:55N 41°29' E 003°07'12 2.6
2019-Jun-05 03:11N 41°30' E 002°50'10 3.3
2019-Jun-05 00:11N 41°37' E 003°00'1 3.3
2019-Jun-04 23:59N 41°37' E 003°01'2 3.2
2019-Jun-04 23:29N 41°38' E 003°02'2 3.1
2019-Jun-04 22:55N 41°39' E 003°04'2 3.0
2019-Jun-04 22:21N 41°40' E 003°06'1 3.1
2019-Jun-04 21:59N 41°41' E 003°07'3 4.1
2019-Jun-04 21:20N 41°44' E 003°08'1 4.2
2019-Jun-04 21:00N 41°45' E 003°09'2 4.1
2019-Jun-04 20:30N 41°47' E 003°11'3 4.0
2019-Jun-04 19:46N 41°49' E 003°13'1 3.6
2019-Jun-04 19:30N 41°50' E 003°13'8 0.7
2019-Jun-04 09:01N 41°42' E 003°14'0 3.0
2019-Jun-04 09:01N 41°43' E 003°14'1 2.9
2019-Jun-04 08:31N 41°44' E 003°15'  

Dump ship's entire track history